createdAt,value
2019-02-18T00:01:00.807Z,8.00
2019-02-18T00:03:29.568Z,8.00
2019-02-18T00:05:57.765Z,8.00
2019-02-18T00:08:26.399Z,8.00
2019-02-18T00:10:54.530Z,8.00
2019-02-18T00:13:22.693Z,8.00
2019-02-18T00:15:50.991Z,8.00
2019-02-18T00:18:19.169Z,8.00
2019-02-18T00:20:47.771Z,8.00
2019-02-18T00:23:15.872Z,7.90
2019-02-18T00:25:44.020Z,7.90
2019-02-18T00:28:12.270Z,8.00
2019-02-18T00:30:40.426Z,7.90
2019-02-18T00:33:08.546Z,7.80
2019-02-18T00:35:36.696Z,7.80
2019-02-18T00:38:04.895Z,7.90
2019-02-18T00:40:33.033Z,7.90
2019-02-18T00:43:01.381Z,7.90
2019-02-18T00:45:29.536Z,7.90
2019-02-18T00:47:57.737Z,7.90
2019-02-18T00:50:25.994Z,7.90
2019-02-18T00:52:54.094Z,7.90
2019-02-18T00:55:22.677Z,7.90
2019-02-18T00:57:50.882Z,7.90
2019-02-18T01:00:19.242Z,7.90
2019-02-18T01:02:47.972Z,7.90
2019-02-18T01:05:16.234Z,7.90
2019-02-18T01:07:44.541Z,7.90
2019-02-18T01:10:13.493Z,7.90
2019-02-18T01:12:41.686Z,7.80
2019-02-18T01:15:11.067Z,7.80
2019-02-18T01:17:39.647Z,7.80
2019-02-18T01:20:10.443Z,7.80
2019-02-18T01:22:39.022Z,7.70
2019-02-18T01:25:09.030Z,7.60
2019-02-18T01:27:37.233Z,7.60
2019-02-18T01:30:07.202Z,7.60
2019-02-18T01:32:35.294Z,7.60
2019-02-18T01:35:03.559Z,7.60
2019-02-18T01:37:31.647Z,7.60
2019-02-18T01:39:59.894Z,7.60
2019-02-18T01:42:27.977Z,7.50
2019-02-18T01:44:56.115Z,7.40
2019-02-18T01:47:24.649Z,7.40
2019-02-18T01:49:52.806Z,7.40
2019-02-18T01:52:20.902Z,7.40
2019-02-18T01:54:49.062Z,7.50
2019-02-18T01:57:17.158Z,7.60
2019-02-18T01:59:45.302Z,7.60
2019-02-18T02:02:13.505Z,7.60
2019-02-18T02:04:41.591Z,7.60
2019-02-18T02:07:09.892Z,7.60
2019-02-18T02:09:38.161Z,7.60
2019-02-18T02:12:06.504Z,7.70
2019-02-18T02:14:34.757Z,7.60
2019-02-18T02:17:02.902Z,7.60
2019-02-18T02:19:30.992Z,7.60
2019-02-18T02:21:59.129Z,7.60
2019-02-18T02:24:27.702Z,7.60
2019-02-18T02:26:55.848Z,7.70
2019-02-18T02:29:24.486Z,7.60
2019-02-18T02:31:53.030Z,7.60
2019-02-18T02:34:21.131Z,7.60
2019-02-18T02:36:49.279Z,7.70
2019-02-18T02:39:17.481Z,7.70
2019-02-18T02:41:45.818Z,7.60
2019-02-18T02:44:13.923Z,7.60
2019-02-18T02:46:42.066Z,7.60
2019-02-18T02:49:10.167Z,7.60
2019-02-18T02:51:38.422Z,7.60
2019-02-18T02:54:25.962Z,7.70
2019-02-18T02:56:54.103Z,7.80
2019-02-18T02:59:22.602Z,7.90
2019-02-18T03:01:50.819Z,8.00
2019-02-18T03:04:19.019Z,7.90
2019-02-18T03:06:47.151Z,7.90
2019-02-18T03:09:15.255Z,8.00
2019-02-18T03:11:43.543Z,8.00
2019-02-18T03:14:11.642Z,8.00
2019-02-18T03:16:39.998Z,8.00
2019-02-18T03:19:08.089Z,8.00
2019-02-18T03:21:36.235Z,8.00
2019-02-18T03:24:05.124Z,8.00
2019-02-18T03:26:33.281Z,7.90
2019-02-18T03:29:41.685Z,7.80
2019-02-18T03:32:09.843Z,7.80
2019-02-18T03:34:45.317Z,7.80
2019-02-18T03:37:13.485Z,7.80
2019-02-18T03:39:41.587Z,7.70
2019-02-18T03:42:09.730Z,7.70
2019-02-18T03:44:37.834Z,7.70
2019-02-18T03:47:05.997Z,7.60
2019-02-18T03:49:34.082Z,7.50
2019-02-18T03:52:02.234Z,7.50
2019-02-18T03:54:30.530Z,7.30
2019-02-18T03:56:59.398Z,7.30
2019-02-18T03:59:27.626Z,7.20
2019-02-18T04:01:55.971Z,7.20
2019-02-18T04:04:24.637Z,7.10
2019-02-18T04:06:52.809Z,7.10
2019-02-18T04:09:21.354Z,7.00
2019-02-18T04:11:49.494Z,6.90
2019-02-18T04:14:18.074Z,6.80
2019-02-18T04:16:46.202Z,6.80
2019-02-18T04:19:14.297Z,6.70
2019-02-18T04:21:42.466Z,6.70
2019-02-18T04:24:10.670Z,6.70
2019-02-18T04:26:41.074Z,6.60
2019-02-18T04:29:09.733Z,6.60
2019-02-18T04:31:37.823Z,6.60
2019-02-18T04:34:06.083Z,6.50
2019-02-18T04:36:34.175Z,6.50
2019-02-18T04:39:03.514Z,6.60
2019-02-18T04:41:31.611Z,6.60
2019-02-18T04:43:59.768Z,6.60
2019-02-18T04:46:27.862Z,6.60
2019-02-18T04:48:56.022Z,6.60
2019-02-18T04:51:24.119Z,6.70
2019-02-18T04:53:52.259Z,6.70
2019-02-18T04:56:20.425Z,6.70
2019-02-18T04:58:48.569Z,6.80
2019-02-18T05:01:16.723Z,6.90
2019-02-18T05:03:44.998Z,6.80
2019-02-18T05:06:13.106Z,6.90
2019-02-18T05:08:41.337Z,6.80
2019-02-18T05:11:09.455Z,6.80
2019-02-18T05:13:37.586Z,6.90
2019-02-18T05:16:05.686Z,7.00
2019-02-18T05:18:33.931Z,7.10
2019-02-18T05:21:02.437Z,7.20
2019-02-18T05:23:30.574Z,7.30
2019-02-18T05:25:58.667Z,7.20
2019-02-18T05:28:26.805Z,7.30
2019-02-18T05:30:54.891Z,7.40
2019-02-18T05:33:23.478Z,7.40
2019-02-18T05:35:51.573Z,7.40
2019-02-18T05:38:19.710Z,7.40
2019-02-18T05:40:47.794Z,7.50
2019-02-18T05:43:15.925Z,7.50
2019-02-18T05:45:44.116Z,7.60
2019-02-18T05:48:12.358Z,7.60
2019-02-18T05:50:40.447Z,7.70
2019-02-18T05:53:08.571Z,7.70
2019-02-18T05:55:37.247Z,7.80
2019-02-18T05:58:06.005Z,7.80
2019-02-18T06:00:34.102Z,7.80
2019-02-18T06:03:02.684Z,7.80
2019-02-18T06:05:30.763Z,7.90
2019-02-18T06:07:58.911Z,7.90
2019-02-18T06:10:26.995Z,7.80
2019-02-18T06:12:55.087Z,7.80
2019-02-18T06:15:23.227Z,7.90
2019-02-18T06:17:51.318Z,7.90
2019-02-18T06:20:19.482Z,8.00
2019-02-18T06:22:47.563Z,8.00
2019-02-18T06:25:15.699Z,8.00
2019-02-18T06:27:43.808Z,8.00
2019-02-18T06:30:12.138Z,8.00
2019-02-18T06:32:40.229Z,8.10
2019-02-18T06:35:08.465Z,8.00
2019-02-18T06:37:36.546Z,8.10
2019-02-18T06:40:05.418Z,8.10
2019-02-18T06:42:33.592Z,8.10
2019-02-18T06:45:21.203Z,8.20
2019-02-18T06:47:49.283Z,8.20
2019-02-18T06:50:17.474Z,8.10
2019-02-18T06:52:45.558Z,8.20
2019-02-18T06:55:13.713Z,8.30
2019-02-18T06:58:18.997Z,8.30
2019-02-18T07:00:54.646Z,8.30
2019-02-18T07:03:45.051Z,8.30
2019-02-18T07:06:27.906Z,8.30
2019-02-18T07:09:21.299Z,8.30
2019-02-18T07:12:03.614Z,8.30
2019-02-18T07:14:31.768Z,8.30
2019-02-18T07:16:59.860Z,8.30
2019-02-18T07:19:27.946Z,8.30
2019-02-18T07:21:56.081Z,8.30
2019-02-18T07:24:24.162Z,8.30
2019-02-18T07:26:52.311Z,8.40
2019-02-18T07:29:20.494Z,8.40
2019-02-18T07:31:48.649Z,8.40
2019-02-18T07:34:16.752Z,8.40
2019-02-18T07:36:44.886Z,8.50
2019-02-18T07:39:13.001Z,8.50
2019-02-18T07:41:41.118Z,8.60
2019-02-18T07:44:09.256Z,8.70
2019-02-18T07:46:37.486Z,8.70
2019-02-18T07:49:05.677Z,8.70
2019-02-18T07:51:33.812Z,8.70
2019-02-18T07:54:01.894Z,8.80
2019-02-18T07:56:30.030Z,8.80
2019-02-18T07:58:58.614Z,8.80
2019-02-18T08:01:44.530Z,8.80
2019-02-18T08:04:12.631Z,8.80
2019-02-18T08:06:40.813Z,8.90
2019-02-18T08:09:08.903Z,8.90
2019-02-18T08:11:37.042Z,8.90
2019-02-18T08:14:05.128Z,8.90
2019-02-18T08:16:33.270Z,9.00
2019-02-18T08:19:01.576Z,9.00
2019-02-18T08:21:29.714Z,9.00
2019-02-18T08:24:00.226Z,9.10
2019-02-18T08:26:28.196Z,9.20
2019-02-18T08:28:56.294Z,9.30
2019-02-18T08:31:25.019Z,9.30
2019-02-18T08:33:53.223Z,9.40
2019-02-18T08:36:21.990Z,9.50
2019-02-18T08:38:50.092Z,9.50
2019-02-18T08:41:18.306Z,9.50
2019-02-18T08:43:46.415Z,9.50
2019-02-18T08:46:14.575Z,9.60
2019-02-18T08:48:42.874Z,9.60
2019-02-18T08:51:11.143Z,9.70
2019-02-18T08:53:39.242Z,9.70
2019-02-18T08:56:08.088Z,9.70
2019-02-18T08:58:36.623Z,9.70
2019-02-18T09:01:05.348Z,9.80
2019-02-18T09:03:33.446Z,9.80
2019-02-18T09:06:01.693Z,9.80
2019-02-18T09:08:29.794Z,9.80
2019-02-18T09:10:57.945Z,9.80
2019-02-18T09:13:26.054Z,9.90
2019-02-18T09:15:59.988Z,9.90
2019-02-18T09:18:24.247Z,9.90
2019-02-18T09:20:52.339Z,10.00
2019-02-18T09:23:26.990Z,10.00
2019-02-18T09:25:58.008Z,10.00
2019-02-18T09:28:26.159Z,10.00
2019-02-18T09:30:55.361Z,10.00
2019-02-18T09:33:23.958Z,10.00
2019-02-18T09:35:52.573Z,10.10
2019-02-18T09:38:24.866Z,10.10
2019-02-18T09:40:51.745Z,10.10
2019-02-18T09:43:20.226Z,10.10
2019-02-18T09:45:51.637Z,10.20
2019-02-18T09:48:19.806Z,10.20
2019-02-18T09:50:47.995Z,10.30
2019-02-18T09:53:16.151Z,10.30
2019-02-18T09:55:44.255Z,10.50
2019-02-18T09:58:12.859Z,10.50
2019-02-18T10:00:40.967Z,10.60
2019-02-18T10:03:09.227Z,10.70
2019-02-18T10:05:37.325Z,10.80
2019-02-18T10:08:05.490Z,10.90
2019-02-18T10:10:33.693Z,11.00
2019-02-18T10:13:01.833Z,11.10
2019-02-18T10:15:29.950Z,11.20
2019-02-18T10:17:58.213Z,11.40
2019-02-18T10:20:26.730Z,11.70
2019-02-18T10:22:54.891Z,11.90
2019-02-18T10:25:22.991Z,12.20
2019-02-18T10:27:51.159Z,12.40
2019-02-18T10:30:20.768Z,12.50
2019-02-18T10:32:49.294Z,12.80
2019-02-18T10:35:18.370Z,12.90
2019-02-18T10:37:54.806Z,13.00
2019-02-18T10:40:16.845Z,13.20
2019-02-18T10:42:44.995Z,13.30
2019-02-18T10:45:13.312Z,13.30
2019-02-18T10:47:43.155Z,13.30
2019-02-18T10:50:11.484Z,13.40
2019-02-18T10:52:39.834Z,13.70
2019-02-18T10:55:08.303Z,13.90
2019-02-18T10:57:37.111Z,14.10
2019-02-18T11:00:08.157Z,14.20
2019-02-18T11:02:36.318Z,14.30
2019-02-18T11:05:04.658Z,14.40
2019-02-18T11:07:32.827Z,14.40
2019-02-18T11:10:01.358Z,14.40
2019-02-18T11:12:29.495Z,14.30
2019-02-18T11:14:57.579Z,14.10
2019-02-18T11:17:25.762Z,14.00
2019-02-18T11:19:54.030Z,13.80
2019-02-18T11:22:22.278Z,13.70
2019-02-18T11:24:50.474Z,13.70
2019-02-18T11:27:18.669Z,13.60
2019-02-18T11:29:46.824Z,13.50
2019-02-18T11:32:14.927Z,13.60
2019-02-18T11:34:43.086Z,13.60
2019-02-18T11:37:13.760Z,13.70
2019-02-18T11:39:42.372Z,13.70
2019-02-18T11:42:10.480Z,13.70
2019-02-18T11:44:38.621Z,13.70
2019-02-18T11:47:06.825Z,13.80
2019-02-18T11:49:34.993Z,13.90
2019-02-18T11:52:03.623Z,13.90
2019-02-18T11:54:31.780Z,13.90
2019-02-18T11:56:59.867Z,13.90
2019-02-18T11:59:28.157Z,13.90
2019-02-18T12:01:56.355Z,13.90
2019-02-18T12:04:24.503Z,13.90
2019-02-18T12:06:52.917Z,13.90
2019-02-18T12:09:21.594Z,13.90
2019-02-18T12:11:49.687Z,13.90
2019-02-18T12:14:18.266Z,13.90
2019-02-18T12:16:46.465Z,13.90
2019-02-18T12:19:14.675Z,13.90
2019-02-18T12:21:42.770Z,14.00
2019-02-18T12:24:11.439Z,14.10
2019-02-18T12:26:39.547Z,14.10
2019-02-18T12:29:07.707Z,14.10
2019-02-18T12:31:35.823Z,14.10
2019-02-18T12:34:04.096Z,14.10
2019-02-18T12:36:32.667Z,14.10
2019-02-18T12:39:00.762Z,14.10
2019-02-18T12:41:29.463Z,14.00
2019-02-18T12:43:57.770Z,14.00
2019-02-18T12:46:26.023Z,14.10
2019-02-18T12:48:54.116Z,14.20
2019-02-18T12:51:22.378Z,14.10
2019-02-18T12:53:50.479Z,14.10
2019-02-18T12:56:19.167Z,14.10
2019-02-18T12:58:54.430Z,14.20
2019-02-18T13:01:17.596Z,14.20
2019-02-18T13:03:45.717Z,14.20
2019-02-18T13:06:13.954Z,14.20
2019-02-18T13:08:42.183Z,14.10
2019-02-18T13:11:10.540Z,14.10
2019-02-18T13:13:38.753Z,14.10
2019-02-18T13:16:06.969Z,14.10
2019-02-18T13:18:35.275Z,14.10
2019-02-18T13:21:03.522Z,14.20
2019-02-18T13:23:31.627Z,14.20
2019-02-18T13:25:59.882Z,14.20
2019-02-18T13:28:27.986Z,14.20
2019-02-18T13:30:56.552Z,14.10
2019-02-18T13:33:25.504Z,14.10
2019-02-18T13:35:53.969Z,14.10
2019-02-18T13:38:22.178Z,14.10
2019-02-18T13:40:50.426Z,14.20
2019-02-18T13:43:18.622Z,14.20
2019-02-18T13:45:47.222Z,14.10
2019-02-18T13:48:15.451Z,14.10
2019-02-18T13:50:43.704Z,14.20
2019-02-18T13:53:12.331Z,14.10
2019-02-18T13:55:40.510Z,14.10
2019-02-18T13:58:09.338Z,14.10
2019-02-18T14:00:37.683Z,14.10
2019-02-18T14:03:05.837Z,14.00
2019-02-18T14:05:33.936Z,14.00
2019-02-18T14:08:03.029Z,14.00
2019-02-18T14:10:32.014Z,14.00
2019-02-18T14:13:00.264Z,14.10
2019-02-18T14:15:28.963Z,14.20
2019-02-18T14:17:57.124Z,14.30
2019-02-18T14:20:25.321Z,14.30
2019-02-18T14:22:53.971Z,14.20
2019-02-18T14:25:22.179Z,14.20
2019-02-18T14:27:50.442Z,14.20
2019-02-18T14:30:18.840Z,14.10
2019-02-18T14:32:47.103Z,14.10
2019-02-18T14:35:16.020Z,14.10
2019-02-18T14:37:44.294Z,14.10
2019-02-18T14:40:13.867Z,14.10
2019-02-18T14:42:42.229Z,14.10
2019-02-18T14:45:10.930Z,14.10
2019-02-18T14:47:39.198Z,14.10
2019-02-18T14:50:07.864Z,14.20
2019-02-18T14:52:36.214Z,14.30
2019-02-18T14:55:04.814Z,14.30
2019-02-18T14:57:33.298Z,14.30
2019-02-18T15:00:02.150Z,14.30
2019-02-18T15:02:30.499Z,14.20
2019-02-18T15:04:58.779Z,14.10
2019-02-18T15:07:27.426Z,14.10
2019-02-18T15:09:55.525Z,14.00
2019-02-18T15:12:24.240Z,14.00
2019-02-18T15:14:52.713Z,14.00
2019-02-18T15:17:20.983Z,13.90
2019-02-18T15:19:49.065Z,13.90
2019-02-18T15:22:17.422Z,13.90
2019-02-18T15:24:45.654Z,13.90
2019-02-18T15:27:14.263Z,13.90
2019-02-18T15:29:42.507Z,13.80
2019-02-18T15:32:10.914Z,13.80
2019-02-18T15:34:39.595Z,13.80
2019-02-18T15:37:07.942Z,13.80
2019-02-18T15:39:36.194Z,13.70
2019-02-18T15:42:04.813Z,13.70
2019-02-18T15:44:33.506Z,13.70
2019-02-18T15:47:01.820Z,13.40
2019-02-18T15:49:30.111Z,13.60
2019-02-18T15:51:58.381Z,13.60
2019-02-18T15:54:26.745Z,13.60
2019-02-18T15:56:54.851Z,13.70
2019-02-18T15:59:23.359Z,13.60
2019-02-18T16:01:51.613Z,13.60
2019-02-18T16:04:19.877Z,13.60
2019-02-18T16:06:47.987Z,13.60
2019-02-18T16:09:16.230Z,13.60
2019-02-18T16:11:44.428Z,13.50
2019-02-18T16:14:13.424Z,13.50
2019-02-18T16:16:41.618Z,13.50
2019-02-18T16:19:09.772Z,13.50
2019-02-18T16:21:37.934Z,13.40
2019-02-18T16:24:06.040Z,13.40
2019-02-18T16:26:34.194Z,13.40
2019-02-18T16:29:02.741Z,13.40
2019-02-18T16:31:31.597Z,13.30
2019-02-18T16:34:00.094Z,13.40
2019-02-18T16:36:28.239Z,13.40
2019-02-18T16:38:56.869Z,13.30
2019-02-18T16:41:25.055Z,13.30
2019-02-18T16:43:53.242Z,13.30
2019-02-18T16:46:21.798Z,13.70
2019-02-18T16:48:51.090Z,13.20
2019-02-18T16:51:19.425Z,13.20
2019-02-18T16:53:47.539Z,13.20
2019-02-18T16:56:15.750Z,13.10
2019-02-18T16:58:43.845Z,13.20
2019-02-18T17:01:12.143Z,13.10
2019-02-18T17:03:40.305Z,13.10
2019-02-18T17:06:08.398Z,13.00
2019-02-18T17:08:36.550Z,13.00
2019-02-18T17:11:04.650Z,13.00
2019-02-18T17:13:32.806Z,13.00
2019-02-18T17:16:01.254Z,13.00
2019-02-18T17:18:29.524Z,13.00
2019-02-18T17:20:57.610Z,13.00
2019-02-18T17:23:25.766Z,12.90
2019-02-18T17:25:53.911Z,12.90
2019-02-18T17:28:22.545Z,12.90
2019-02-18T17:30:50.744Z,12.80
2019-02-18T17:33:19.003Z,12.80
2019-02-18T17:35:47.800Z,12.80
2019-02-18T17:38:16.046Z,12.80
2019-02-18T17:40:44.511Z,12.80
2019-02-18T17:43:16.426Z,12.80
2019-02-18T17:45:42.751Z,12.80
2019-02-18T17:48:10.894Z,12.70
2019-02-18T17:50:39.060Z,12.70
2019-02-18T17:53:07.419Z,12.70
2019-02-18T17:55:35.634Z,12.60
2019-02-18T17:58:03.774Z,12.60
2019-02-18T18:00:33.211Z,12.50
2019-02-18T18:03:01.415Z,12.50
2019-02-18T18:05:29.710Z,12.50
2019-02-18T18:07:58.570Z,12.40
2019-02-18T18:10:26.758Z,12.40
2019-02-18T18:12:55.022Z,12.30
2019-02-18T18:15:23.324Z,12.30
2019-02-18T18:17:51.600Z,12.30
2019-02-18T18:20:19.722Z,12.30
2019-02-18T18:22:48.070Z,12.20
2019-02-18T18:25:16.376Z,12.20
2019-02-18T18:27:44.833Z,12.20
2019-02-18T18:30:14.031Z,12.10
2019-02-18T18:32:42.176Z,12.10
2019-02-18T18:35:10.656Z,12.10
2019-02-18T18:37:38.849Z,12.00
2019-02-18T18:40:09.160Z,12.00
2019-02-18T18:42:37.410Z,11.90
2019-02-18T18:45:07.038Z,11.90
2019-02-18T18:47:35.135Z,11.90
2019-02-18T18:50:03.606Z,11.80
2019-02-18T18:52:31.707Z,11.80
2019-02-18T18:55:00.144Z,11.70
2019-02-18T18:57:28.829Z,11.70
2019-02-18T18:59:57.027Z,11.70
2019-02-18T19:02:25.280Z,11.70
2019-02-18T19:04:53.438Z,11.60
2019-02-18T19:07:21.646Z,11.60
2019-02-18T19:09:50.381Z,11.50
2019-02-18T19:12:18.967Z,11.50
2019-02-18T19:14:47.891Z,11.40
2019-02-18T19:17:15.986Z,11.40
2019-02-18T19:19:44.238Z,11.40
2019-02-18T19:22:12.347Z,11.40
2019-02-18T19:24:40.911Z,11.40
2019-02-18T19:27:09.474Z,11.30
2019-02-18T19:29:37.630Z,11.30
2019-02-18T19:32:05.732Z,11.30
2019-02-18T19:34:33.885Z,11.30
2019-02-18T19:37:02.133Z,11.30
2019-02-18T19:39:30.292Z,11.20
2019-02-18T19:41:58.591Z,11.20
2019-02-18T19:44:26.742Z,11.20
2019-02-18T19:46:54.950Z,11.60
2019-02-18T19:49:23.140Z,11.20
2019-02-18T19:51:51.338Z,11.20
2019-02-18T19:54:22.634Z,11.20
2019-02-18T19:56:52.218Z,11.20
2019-02-18T19:59:20.413Z,11.20
2019-02-18T20:01:48.667Z,11.20
2019-02-18T20:04:17.238Z,11.20
2019-02-18T20:06:45.398Z,11.20
2019-02-18T20:09:15.036Z,11.20
2019-02-18T20:11:43.611Z,11.20
2019-02-18T20:14:11.815Z,11.20
2019-02-18T20:16:40.064Z,11.20
2019-02-18T20:19:08.599Z,11.20
2019-02-18T20:21:36.767Z,11.20
2019-02-18T20:24:04.985Z,11.10
2019-02-18T20:26:33.551Z,11.10
2019-02-18T20:29:01.653Z,11.20
2019-02-18T20:31:29.930Z,11.20
2019-02-18T20:33:58.298Z,11.20
2019-02-18T20:36:26.985Z,11.10
2019-02-18T20:38:55.158Z,11.10
2019-02-18T20:41:23.327Z,11.10
2019-02-18T20:43:51.971Z,11.00
2019-02-18T20:46:20.694Z,11.00
2019-02-18T20:48:49.675Z,11.00
2019-02-18T20:51:18.067Z,11.00
2019-02-18T20:53:46.306Z,11.00
2019-02-18T20:56:14.519Z,10.90
2019-02-18T20:58:43.122Z,10.90
2019-02-18T21:01:11.512Z,10.90
2019-02-18T21:03:39.750Z,10.90
2019-02-18T21:06:08.071Z,11.00
2019-02-18T21:08:36.702Z,10.90
2019-02-18T21:11:05.123Z,10.90
2019-02-18T21:13:34.134Z,10.90
2019-02-18T21:16:02.325Z,10.90
2019-02-18T21:18:30.566Z,10.90
2019-02-18T21:20:59.092Z,11.00
2019-02-18T21:23:27.227Z,10.90
2019-02-18T21:25:55.422Z,10.90
2019-02-18T21:28:25.734Z,10.90
2019-02-18T21:30:53.893Z,10.80
2019-02-18T21:33:22.002Z,10.80
2019-02-18T21:35:50.100Z,10.80
2019-02-18T21:38:18.249Z,10.80
2019-02-18T21:40:46.714Z,10.80
2019-02-18T21:43:14.974Z,10.80
2019-02-18T21:45:44.823Z,10.80
2019-02-18T21:48:13.858Z,10.80
2019-02-18T21:50:41.992Z,10.80
2019-02-18T21:53:10.302Z,10.80
2019-02-18T21:55:38.594Z,10.70
2019-02-18T21:58:06.851Z,10.70
2019-02-18T22:00:35.056Z,10.70
2019-02-18T22:03:03.394Z,10.70
2019-02-18T22:05:32.623Z,10.70
2019-02-18T22:08:01.189Z,10.70
2019-02-18T22:10:29.290Z,10.60
2019-02-18T22:12:57.533Z,10.60
2019-02-18T22:15:25.627Z,10.60
2019-02-18T22:17:54.716Z,10.70
2019-02-18T22:20:22.806Z,10.60
2019-02-18T22:22:51.457Z,10.60
2019-02-18T22:25:19.538Z,10.60
2019-02-18T22:27:47.695Z,10.60
2019-02-18T22:30:15.991Z,10.60
2019-02-18T22:32:44.333Z,10.60
2019-02-18T22:35:12.927Z,10.50
2019-02-18T22:37:41.630Z,10.50
2019-02-18T22:40:09.989Z,10.50
2019-02-18T22:42:38.695Z,10.50
2019-02-18T22:45:07.016Z,10.50
2019-02-18T22:47:35.713Z,10.50
2019-02-18T22:50:04.471Z,10.50
2019-02-18T22:52:33.129Z,10.40
2019-02-18T22:55:01.561Z,10.40
2019-02-18T22:57:29.703Z,10.40
2019-02-18T22:59:57.790Z,10.30
2019-02-18T23:02:26.202Z,10.30
2019-02-18T23:04:54.298Z,10.30
2019-02-18T23:07:22.910Z,10.30
2019-02-18T23:09:51.414Z,10.30
2019-02-18T23:12:19.673Z,10.30
2019-02-18T23:14:50.416Z,10.40
2019-02-18T23:17:17.879Z,10.30
2019-02-18T23:19:45.989Z,10.30
2019-02-18T23:22:14.130Z,10.30
2019-02-18T23:24:42.226Z,10.30
2019-02-18T23:27:10.587Z,10.30
2019-02-18T23:29:38.746Z,10.20
2019-02-18T23:32:07.574Z,10.20
2019-02-18T23:34:35.744Z,10.10
2019-02-18T23:37:03.826Z,10.10
2019-02-18T23:39:31.975Z,10.10
2019-02-18T23:42:00.160Z,10.20
2019-02-18T23:44:28.322Z,10.10
2019-02-18T23:46:56.431Z,10.10
2019-02-18T23:49:24.590Z,10.00
2019-02-18T23:51:52.698Z,10.00
2019-02-18T23:54:20.849Z,10.00
2019-02-18T23:56:49.489Z,10.00
2019-02-18T23:59:17.627Z,10.00
